createdAt,value
2022-08-03T00:00:40.472Z,0.00
2022-08-03T00:01:40.422Z,0.00
2022-08-03T00:02:40.409Z,0.00
2022-08-03T00:03:40.389Z,0.00
2022-08-03T00:04:40.392Z,0.00
2022-08-03T00:05:40.352Z,0.00
2022-08-03T00:06:40.358Z,0.00
2022-08-03T00:07:40.321Z,0.00
2022-08-03T00:08:40.482Z,0.00
2022-08-03T00:09:40.284Z,0.00
2022-08-03T00:10:40.279Z,0.00
2022-08-03T00:11:40.244Z,0.00
2022-08-03T00:12:40.242Z,0.00
2022-08-03T00:13:40.243Z,0.00
2022-08-03T00:14:40.207Z,0.00
2022-08-03T00:15:40.179Z,0.00
2022-08-03T00:16:40.169Z,0.00
2022-08-03T00:17:52.630Z,0.00
2022-08-03T00:18:40.120Z,0.00
2022-08-03T00:19:40.108Z,0.00
2022-08-03T00:20:40.092Z,0.00
2022-08-03T00:21:40.093Z,0.00
2022-08-03T00:22:40.071Z,0.00
2022-08-03T00:23:52.139Z,0.00
2022-08-03T00:24:40.028Z,0.00
2022-08-03T00:25:40.006Z,0.00
2022-08-03T00:26:39.992Z,0.00
2022-08-03T00:27:39.976Z,0.00
2022-08-03T00:28:39.953Z,0.00
2022-08-03T00:29:59.948Z,0.00
2022-08-03T00:30:39.951Z,0.00
2022-08-03T00:31:52.354Z,0.00
2022-08-03T00:32:41.396Z,0.00
2022-08-03T00:33:59.034Z,0.00
2022-08-03T00:34:58.438Z,0.00
2022-08-03T00:35:50.762Z,0.00
2022-08-03T00:36:39.817Z,0.00
2022-08-03T00:37:40.873Z,0.00
2022-08-03T00:38:39.788Z,0.00
2022-08-03T00:39:39.771Z,0.00
2022-08-03T00:40:40.274Z,0.00
2022-08-03T00:41:39.734Z,0.00
2022-08-03T00:42:39.712Z,0.00
2022-08-03T00:43:39.695Z,0.00
2022-08-03T00:44:39.695Z,0.00
2022-08-03T00:45:39.668Z,0.00
2022-08-03T00:46:39.658Z,0.00
2022-08-03T00:47:39.651Z,0.00
2022-08-03T00:48:39.621Z,0.00
2022-08-03T00:49:39.660Z,0.00
2022-08-03T00:50:39.583Z,0.00
2022-08-03T00:51:39.568Z,0.00
2022-08-03T00:52:39.581Z,0.00
2022-08-03T00:53:39.539Z,0.00
2022-08-03T00:54:39.525Z,0.00
2022-08-03T00:55:39.496Z,0.00
2022-08-03T00:56:39.498Z,0.00
2022-08-03T00:57:39.454Z,0.00
2022-08-03T00:58:39.431Z,0.00
2022-08-03T00:59:39.444Z,0.00
2022-08-03T01:00:39.411Z,0.00
2022-08-03T01:01:40.300Z,0.00
2022-08-03T01:02:39.371Z,0.00
2022-08-03T01:03:39.362Z,0.00
2022-08-03T01:04:39.340Z,0.00
2022-08-03T01:05:39.336Z,0.00
2022-08-03T01:06:39.299Z,0.00
2022-08-03T01:07:39.297Z,0.00
2022-08-03T01:08:39.300Z,0.00
2022-08-03T01:09:39.253Z,0.00
2022-08-03T01:10:39.233Z,0.00
2022-08-03T01:12:00.020Z,0.00
2022-08-03T01:12:39.194Z,0.00
2022-08-03T01:14:01.314Z,0.00
2022-08-03T01:14:39.229Z,0.00
2022-08-03T01:15:39.139Z,0.00
2022-08-03T01:16:39.143Z,0.00
2022-08-03T01:17:39.112Z,0.00
2022-08-03T01:18:39.093Z,0.00
2022-08-03T01:19:39.073Z,0.00
2022-08-03T01:20:39.072Z,0.00
2022-08-03T01:21:39.051Z,0.00
2022-08-03T01:22:39.048Z,0.00
2022-08-03T01:23:39.002Z,0.00
2022-08-03T01:24:40.864Z,0.00
2022-08-03T01:25:38.990Z,0.00
2022-08-03T01:26:38.979Z,0.00
2022-08-03T01:27:38.968Z,0.00
2022-08-03T01:28:38.918Z,0.00
2022-08-03T01:29:38.905Z,0.00
2022-08-03T01:30:38.880Z,0.00
2022-08-03T01:32:58.850Z,0.00
2022-08-03T01:32:59.365Z,0.00
2022-08-03T01:33:38.824Z,0.00
2022-08-03T01:34:38.834Z,4.00
2022-08-03T01:35:39.785Z,4.00
2022-08-03T01:36:38.770Z,0.00
2022-08-03T01:37:38.882Z,0.00
2022-08-03T01:38:38.747Z,0.00
2022-08-03T01:39:38.759Z,4.00
2022-08-03T01:40:38.699Z,4.00
2022-08-03T01:41:38.704Z,0.00
2022-08-03T01:42:38.668Z,0.00
2022-08-03T01:44:26.486Z,4.00
2022-08-03T01:44:38.683Z,4.00
2022-08-03T01:45:38.615Z,0.00
2022-08-03T01:46:38.607Z,4.00
2022-08-03T01:47:38.607Z,0.00
2022-08-03T01:48:38.575Z,0.00
2022-08-03T01:49:38.768Z,4.00
2022-08-03T01:50:38.557Z,4.00
2022-08-03T01:52:03.617Z,4.00
2022-08-03T01:52:38.495Z,4.00
2022-08-03T01:53:38.478Z,4.00
2022-08-03T01:54:38.472Z,4.00
2022-08-03T01:55:38.459Z,8.00
2022-08-03T01:56:38.431Z,4.00
2022-08-03T01:58:06.199Z,8.00
2022-08-03T01:58:38.408Z,8.00
2022-08-03T01:59:38.396Z,8.00
2022-08-03T02:00:38.470Z,4.00
2022-08-03T02:02:27.541Z,8.00
2022-08-03T02:02:38.744Z,8.00
2022-08-03T02:03:38.330Z,12.00
2022-08-03T02:04:38.328Z,8.00
2022-08-03T02:05:38.266Z,12.00
2022-08-03T02:07:01.528Z,8.00
2022-08-03T02:07:38.243Z,12.00
2022-08-03T02:08:38.227Z,12.00
2022-08-03T02:09:38.255Z,12.00
2022-08-03T02:10:38.180Z,12.00
2022-08-03T02:11:38.191Z,12.00
2022-08-03T02:12:38.171Z,12.00
2022-08-03T02:13:38.808Z,16.00
2022-08-03T02:14:38.110Z,16.00
2022-08-03T02:15:38.116Z,16.00
2022-08-03T02:16:38.104Z,16.00
2022-08-03T02:17:40.323Z,16.00
2022-08-03T02:18:38.031Z,20.00
2022-08-03T02:19:38.040Z,16.00
2022-08-03T02:20:38.010Z,20.00
2022-08-03T02:21:56.271Z,20.00
2022-08-03T02:22:37.957Z,24.00
2022-08-03T02:23:37.960Z,24.00
2022-08-03T02:24:37.933Z,24.00
2022-08-03T02:25:37.971Z,28.00
2022-08-03T02:26:37.893Z,28.00
2022-08-03T02:27:41.814Z,24.00
2022-08-03T02:28:37.862Z,28.00
2022-08-03T02:29:39.401Z,28.00
2022-08-03T02:30:37.829Z,32.00
2022-08-03T02:31:37.814Z,32.00
2022-08-03T02:32:37.789Z,32.00
2022-08-03T02:33:37.788Z,36.00
2022-08-03T02:34:37.748Z,32.00
2022-08-03T02:35:37.847Z,36.00
2022-08-03T02:36:37.731Z,36.00
2022-08-03T02:37:37.736Z,36.00
2022-08-03T02:38:38.341Z,40.00
2022-08-03T02:39:37.655Z,40.00
2022-08-03T02:40:37.665Z,44.00
2022-08-03T02:41:37.644Z,40.00
2022-08-03T02:42:38.306Z,44.00
2022-08-03T02:43:39.206Z,44.00
2022-08-03T02:44:37.593Z,44.00
2022-08-03T02:45:37.606Z,44.00
2022-08-03T02:46:37.580Z,48.00
2022-08-03T02:47:54.516Z,52.00
2022-08-03T02:48:37.502Z,52.00
2022-08-03T02:49:50.405Z,56.00
2022-08-03T02:50:37.504Z,56.00
2022-08-03T02:51:37.446Z,60.00
2022-08-03T02:52:37.440Z,60.00
2022-08-03T02:53:37.420Z,60.00
2022-08-03T02:54:37.397Z,64.00
2022-08-03T02:55:43.020Z,64.00
2022-08-03T02:56:37.365Z,68.00
2022-08-03T02:57:37.357Z,72.00
2022-08-03T02:58:37.357Z,76.00
2022-08-03T02:59:37.297Z,80.00
2022-08-03T03:00:37.340Z,84.00
2022-08-03T03:01:37.300Z,88.00
2022-08-03T03:02:37.265Z,88.00
2022-08-03T03:03:44.642Z,96.00
2022-08-03T03:04:37.214Z,96.00
2022-08-03T03:05:56.337Z,100.00
2022-08-03T03:06:37.198Z,108.00
2022-08-03T03:07:47.800Z,112.00
2022-08-03T03:08:37.221Z,116.00
2022-08-03T03:09:41.611Z,120.00
2022-08-03T03:10:37.110Z,124.00
2022-08-03T03:11:37.135Z,128.00
2022-08-03T03:12:37.070Z,132.00
2022-08-03T03:13:37.061Z,136.00
2022-08-03T03:14:37.046Z,140.00
2022-08-03T03:15:37.056Z,140.00
2022-08-03T03:16:37.002Z,140.00
2022-08-03T03:17:36.996Z,140.00
2022-08-03T03:18:36.996Z,136.00
2022-08-03T03:19:36.940Z,136.00
2022-08-03T03:20:36.928Z,132.00
2022-08-03T03:21:36.921Z,128.00
2022-08-03T03:22:36.913Z,124.00
2022-08-03T03:23:36.895Z,120.00
2022-08-03T03:24:36.910Z,116.00
2022-08-03T03:25:36.846Z,112.00
2022-08-03T03:26:40.668Z,108.00
2022-08-03T03:27:36.828Z,108.00
2022-08-03T03:28:37.350Z,108.00
2022-08-03T03:29:39.295Z,108.00
2022-08-03T03:30:36.777Z,108.00
2022-08-03T03:31:36.757Z,112.00
2022-08-03T03:32:37.362Z,112.00
2022-08-03T03:33:36.699Z,116.00
2022-08-03T03:34:36.702Z,120.00
2022-08-03T03:35:38.967Z,124.00
2022-08-03T03:36:36.706Z,132.00
2022-08-03T03:37:36.625Z,140.00
2022-08-03T03:38:36.627Z,148.00
2022-08-03T03:39:36.621Z,156.00
2022-08-03T03:40:36.622Z,160.00
2022-08-03T03:41:36.556Z,168.00
2022-08-03T03:42:36.555Z,176.00
2022-08-03T03:43:36.550Z,180.00
2022-08-03T03:44:36.531Z,188.00
2022-08-03T03:45:37.358Z,196.00
2022-08-03T03:46:36.477Z,204.00
2022-08-03T03:47:36.470Z,212.00
2022-08-03T03:48:36.469Z,224.00
2022-08-03T03:49:36.528Z,232.00
2022-08-03T03:50:36.399Z,236.00
2022-08-03T03:51:36.407Z,244.00
2022-08-03T03:52:36.396Z,248.00
2022-08-03T03:53:36.397Z,252.00
2022-08-03T03:54:36.358Z,256.00
2022-08-03T03:55:36.336Z,260.00
2022-08-03T03:56:36.332Z,268.00
2022-08-03T03:57:36.298Z,268.00
2022-08-03T03:58:36.849Z,272.00
2022-08-03T03:59:36.258Z,280.00
2022-08-03T04:00:36.324Z,280.00
2022-08-03T04:01:36.250Z,280.00
2022-08-03T04:02:36.252Z,284.00
2022-08-03T04:03:36.182Z,284.00
2022-08-03T04:04:36.174Z,288.00
2022-08-03T04:05:36.172Z,288.00
2022-08-03T04:06:38.847Z,288.00
2022-08-03T04:07:36.111Z,292.00
2022-08-03T04:08:36.096Z,292.00
2022-08-03T04:09:36.111Z,296.00
2022-08-03T04:10:36.054Z,304.00
2022-08-03T04:11:36.034Z,312.00
2022-08-03T04:12:36.023Z,328.00
2022-08-03T04:13:36.017Z,340.00
2022-08-03T04:14:36.016Z,364.00
2022-08-03T04:15:35.965Z,384.00
2022-08-03T04:16:35.965Z,416.00
2022-08-03T04:17:35.935Z,452.00
2022-08-03T04:18:35.947Z,492.00
2022-08-03T04:19:36.907Z,528.00
2022-08-03T04:20:35.899Z,556.00
2022-08-03T04:21:35.877Z,588.00
2022-08-03T04:22:35.870Z,632.00
2022-08-03T04:23:36.393Z,648.00
2022-08-03T04:24:35.818Z,692.00
2022-08-03T04:25:35.802Z,720.00
2022-08-03T04:26:35.806Z,708.00
2022-08-03T04:27:35.786Z,704.00
2022-08-03T04:28:35.751Z,720.00
2022-08-03T04:29:35.742Z,792.00
2022-08-03T04:30:35.733Z,804.00
2022-08-03T04:31:35.773Z,1116.00
2022-08-03T04:32:36.369Z,1200.00
2022-08-03T04:33:35.673Z,1200.00
2022-08-03T04:34:35.661Z,1232.00
2022-08-03T04:35:58.632Z,1188.00
2022-08-03T04:36:35.667Z,1016.00
2022-08-03T04:37:35.594Z,1088.00
2022-08-03T04:38:35.581Z,868.00
2022-08-03T04:39:35.586Z,708.00
2022-08-03T04:40:35.581Z,720.00
2022-08-03T04:42:08.030Z,696.00
2022-08-03T04:42:35.511Z,640.00
2022-08-03T04:43:35.498Z,616.00
2022-08-03T04:44:35.519Z,612.00
2022-08-03T04:45:35.474Z,604.00
2022-08-03T04:46:35.450Z,600.00
2022-08-03T04:47:35.441Z,612.00
2022-08-03T04:48:35.450Z,624.00
2022-08-03T04:49:35.431Z,648.00
2022-08-03T04:50:35.386Z,684.00
2022-08-03T04:51:35.382Z,816.00
2022-08-03T04:52:35.354Z,860.00
2022-08-03T04:53:35.357Z,1100.00
2022-08-03T04:54:35.877Z,1180.00
2022-08-03T04:55:35.307Z,1104.00
2022-08-03T04:56:35.294Z,1156.00
2022-08-03T04:57:35.293Z,2020.00
2022-08-03T04:58:35.288Z,1708.00
2022-08-03T04:59:35.239Z,1428.00
2022-08-03T05:00:35.224Z,1148.00
2022-08-03T05:01:35.336Z,1492.00
2022-08-03T05:02:35.217Z,980.00
2022-08-03T05:03:35.872Z,1388.00
2022-08-03T05:04:35.164Z,1532.00
2022-08-03T05:05:49.680Z,1388.00
2022-08-03T05:06:35.147Z,1024.00
2022-08-03T05:07:36.197Z,1116.00
2022-08-03T05:08:35.095Z,1572.00
2022-08-03T05:09:52.613Z,832.00
2022-08-03T05:10:35.108Z,904.00
2022-08-03T05:11:35.092Z,816.00
2022-08-03T05:12:35.909Z,544.00
2022-08-03T05:13:35.023Z,676.00
2022-08-03T05:14:35.006Z,672.00
2022-08-03T05:15:35.003Z,620.00
2022-08-03T05:16:35.066Z,728.00
2022-08-03T05:17:35.918Z,784.00
2022-08-03T05:18:34.976Z,556.00
2022-08-03T05:19:34.942Z,400.00
2022-08-03T05:20:34.948Z,348.00
2022-08-03T05:21:50.395Z,372.00
2022-08-03T05:22:34.894Z,412.00
2022-08-03T05:23:34.870Z,896.00
2022-08-03T05:24:34.877Z,1108.00
2022-08-03T05:25:34.860Z,1124.00
2022-08-03T05:26:35.413Z,1492.00
2022-08-03T05:27:34.823Z,1616.00
2022-08-03T05:28:34.879Z,1228.00
2022-08-03T05:29:34.810Z,1652.00
2022-08-03T05:30:34.888Z,2460.00
2022-08-03T05:31:34.800Z,1888.00
2022-08-03T05:32:34.743Z,2880.00
2022-08-03T05:33:34.726Z,2792.00
2022-08-03T05:34:34.736Z,2988.00
2022-08-03T05:35:57.500Z,1800.00
2022-08-03T05:36:34.676Z,3084.00
2022-08-03T05:37:34.663Z,2736.00
2022-08-03T05:38:35.537Z,2248.00
2022-08-03T05:39:34.689Z,2276.00
2022-08-03T05:40:34.617Z,1592.00
2022-08-03T05:41:37.023Z,1856.00
2022-08-03T05:42:34.590Z,1304.00
2022-08-03T05:43:34.593Z,1012.00
2022-08-03T05:44:34.581Z,716.00
2022-08-03T05:45:34.585Z,660.00
2022-08-03T05:46:34.539Z,664.00
2022-08-03T05:47:34.514Z,664.00
2022-08-03T05:48:34.532Z,560.00
2022-08-03T05:49:34.555Z,752.00
2022-08-03T05:50:38.728Z,1344.00
2022-08-03T05:51:34.460Z,1452.00
2022-08-03T05:52:34.449Z,1068.00
2022-08-03T05:53:34.476Z,2080.00
2022-08-03T05:54:56.848Z,2164.00
2022-08-03T05:55:34.452Z,2488.00
2022-08-03T05:56:34.393Z,3248.00
2022-08-03T05:57:34.381Z,2340.00
2022-08-03T05:58:34.394Z,2864.00
2022-08-03T05:59:38.580Z,2880.00
2022-08-03T06:00:34.909Z,2768.00
2022-08-03T06:01:34.375Z,3180.00
2022-08-03T06:02:34.311Z,1252.00
2022-08-03T06:03:34.339Z,980.00
2022-08-03T06:04:34.308Z,860.00
2022-08-03T06:05:34.917Z,2448.00
2022-08-03T06:06:34.255Z,3756.00
2022-08-03T06:07:34.245Z,1480.00
2022-08-03T06:08:34.275Z,648.00
2022-08-03T06:10:35.386Z,3524.00
2022-08-03T06:10:36.387Z,3520.00
2022-08-03T06:11:34.194Z,3632.00
2022-08-03T06:12:34.181Z,3644.00
2022-08-03T06:13:34.181Z,3356.00
2022-08-03T06:14:34.165Z,1880.00
2022-08-03T06:15:34.134Z,1812.00
2022-08-03T06:16:34.125Z,2848.00
2022-08-03T06:17:37.359Z,2652.00
2022-08-03T06:18:34.114Z,2624.00
2022-08-03T06:19:34.100Z,3248.00
2022-08-03T06:20:34.071Z,3112.00
2022-08-03T06:21:34.952Z,3132.00
2022-08-03T06:22:34.057Z,2064.00
2022-08-03T06:23:54.478Z,2244.00
2022-08-03T06:24:34.034Z,1856.00
2022-08-03T06:25:34.040Z,2704.00
2022-08-03T06:26:34.045Z,3036.00
2022-08-03T06:27:37.113Z,3892.00
2022-08-03T06:28:52.776Z,3988.00
2022-08-03T06:29:33.969Z,1544.00
2022-08-03T06:30:33.977Z,1452.00
2022-08-03T06:31:33.946Z,1524.00
2022-08-03T06:32:33.926Z,3684.00
2022-08-03T06:34:30.034Z,3820.00
2022-08-03T06:34:35.800Z,3972.00
2022-08-03T06:35:33.896Z,3992.00
2022-08-03T06:36:33.915Z,2764.00
2022-08-03T06:37:34.430Z,1016.00
2022-08-03T06:38:33.861Z,4040.00
2022-08-03T06:39:33.843Z,4060.00
2022-08-03T06:40:33.845Z,888.00
2022-08-03T06:41:37.535Z,3992.00
2022-08-03T06:42:33.853Z,3536.00
2022-08-03T06:43:35.836Z,3808.00
2022-08-03T06:44:33.780Z,672.00
2022-08-03T06:45:33.780Z,1372.00
2022-08-03T06:46:33.776Z,3876.00
2022-08-03T06:47:33.780Z,4056.00
2022-08-03T06:48:34.422Z,4032.00
2022-08-03T06:49:33.811Z,908.00
2022-08-03T06:50:33.713Z,1508.00
2022-08-03T06:52:05.740Z,4004.00
2022-08-03T06:52:37.525Z,2768.00
2022-08-03T06:53:33.729Z,2320.00
2022-08-03T06:54:33.682Z,616.00
2022-08-03T06:55:33.668Z,996.00
2022-08-03T06:56:33.649Z,3608.00
2022-08-03T06:57:33.659Z,908.00
2022-08-03T06:58:33.649Z,652.00
2022-08-03T07:00:08.851Z,752.00
2022-08-03T07:00:33.614Z,2160.00
2022-08-03T07:01:33.674Z,804.00
2022-08-03T07:02:33.589Z,796.00
2022-08-03T07:03:33.594Z,844.00
2022-08-03T07:04:33.594Z,876.00
2022-08-03T07:05:33.609Z,568.00
2022-08-03T07:06:33.543Z,572.00
2022-08-03T07:07:33.532Z,656.00
2022-08-03T07:08:34.558Z,584.00
2022-08-03T07:09:33.535Z,616.00
2022-08-03T07:10:33.517Z,768.00
2022-08-03T07:11:34.446Z,664.00
2022-08-03T07:12:33.478Z,992.00
2022-08-03T07:13:33.463Z,936.00
2022-08-03T07:14:33.463Z,1804.00
2022-08-03T07:15:54.559Z,2856.00
2022-08-03T07:16:33.428Z,1820.00
2022-08-03T07:17:33.427Z,4184.00
2022-08-03T07:18:33.421Z,2160.00
2022-08-03T07:19:33.403Z,2196.00
2022-08-03T07:20:33.401Z,4132.00
2022-08-03T07:21:33.406Z,4100.00
2022-08-03T07:22:33.361Z,4012.00
2022-08-03T07:23:33.348Z,4004.00
2022-08-03T07:24:33.337Z,724.00
2022-08-03T07:25:33.339Z,760.00
2022-08-03T07:26:33.320Z,920.00
2022-08-03T07:27:33.331Z,4188.00
2022-08-03T07:28:33.954Z,4184.00
2022-08-03T07:29:34.721Z,4084.00
2022-08-03T07:30:33.268Z,856.00
2022-08-03T07:31:34.242Z,716.00
2022-08-03T07:32:33.277Z,636.00
2022-08-03T07:33:33.269Z,572.00
2022-08-03T07:34:33.236Z,532.00
2022-08-03T07:35:33.229Z,584.00
2022-08-03T07:36:33.206Z,3908.00
2022-08-03T07:37:33.204Z,3828.00
2022-08-03T07:38:33.205Z,908.00
2022-08-03T07:39:33.175Z,512.00
2022-08-03T07:40:33.955Z,1016.00
2022-08-03T07:41:33.168Z,1220.00
2022-08-03T07:42:33.143Z,552.00
2022-08-03T07:43:33.150Z,476.00
2022-08-03T07:44:33.141Z,576.00
2022-08-03T07:45:33.173Z,3864.00
2022-08-03T07:46:33.139Z,1292.00
2022-08-03T07:47:35.204Z,3740.00
2022-08-03T07:48:33.082Z,3684.00
2022-08-03T07:49:33.181Z,3736.00
2022-08-03T07:50:33.096Z,3848.00
2022-08-03T07:51:33.044Z,3880.00
2022-08-03T07:52:33.033Z,3916.00
2022-08-03T07:53:33.020Z,3920.00
2022-08-03T07:54:33.019Z,3868.00
2022-08-03T07:55:33.091Z,3872.00
2022-08-03T07:56:33.012Z,3860.00
2022-08-03T07:57:33.965Z,3984.00
2022-08-03T07:58:32.973Z,3976.00
2022-08-03T07:59:56.539Z,3964.00
2022-08-03T08:00:32.961Z,3952.00
2022-08-03T08:01:33.041Z,3840.00
2022-08-03T08:02:33.015Z,3864.00
2022-08-03T08:03:53.112Z,3796.00
2022-08-03T08:04:32.913Z,3788.00
2022-08-03T08:05:32.917Z,3872.00
2022-08-03T08:06:32.896Z,1196.00
2022-08-03T08:07:32.906Z,3932.00
2022-08-03T08:08:32.903Z,760.00
2022-08-03T08:09:32.860Z,1124.00
2022-08-03T08:10:32.860Z,580.00
2022-08-03T08:11:34.851Z,3752.00
2022-08-03T08:12:32.836Z,520.00
2022-08-03T08:13:32.829Z,1080.00
2022-08-03T08:14:32.820Z,3696.00
2022-08-03T08:15:32.927Z,2580.00
2022-08-03T08:16:32.790Z,2096.00
2022-08-03T08:17:32.770Z,1604.00
2022-08-03T08:18:32.776Z,3416.00
2022-08-03T08:19:32.770Z,3376.00
2022-08-03T08:20:32.816Z,3468.00
2022-08-03T08:21:53.039Z,3560.00
2022-08-03T08:22:32.729Z,3740.00
2022-08-03T08:23:41.984Z,3208.00
2022-08-03T08:24:32.712Z,2268.00
2022-08-03T08:25:32.795Z,3536.00
2022-08-03T08:26:32.717Z,3612.00
2022-08-03T08:28:29.548Z,3628.00
2022-08-03T08:28:33.837Z,3728.00
2022-08-03T08:29:32.652Z,1228.00
2022-08-03T08:30:32.650Z,3772.00
2022-08-03T08:31:32.638Z,3632.00
2022-08-03T08:32:32.649Z,3632.00
2022-08-03T08:33:48.290Z,3684.00
2022-08-03T08:34:33.494Z,3692.00
2022-08-03T08:35:32.615Z,3300.00
2022-08-03T08:36:32.586Z,3684.00
2022-08-03T08:37:32.596Z,3572.00
2022-08-03T08:38:32.581Z,3584.00
2022-08-03T08:39:32.596Z,3556.00
2022-08-03T08:40:32.559Z,728.00
2022-08-03T08:41:32.553Z,3580.00
2022-08-03T08:42:32.534Z,3496.00
2022-08-03T08:43:32.533Z,3508.00
2022-08-03T08:44:32.581Z,3504.00
2022-08-03T08:45:32.514Z,3456.00
2022-08-03T08:46:32.498Z,3440.00
2022-08-03T08:47:51.015Z,3488.00
2022-08-03T08:48:32.475Z,3496.00
2022-08-03T08:49:32.526Z,3464.00
2022-08-03T08:50:32.480Z,3460.00
2022-08-03T08:51:59.296Z,3412.00
2022-08-03T08:52:32.439Z,3400.00
2022-08-03T08:53:32.429Z,3408.00
2022-08-03T08:54:32.416Z,3376.00
2022-08-03T08:55:59.161Z,3360.00
2022-08-03T08:56:32.417Z,3364.00
2022-08-03T08:57:42.907Z,3364.00
2022-08-03T08:58:32.374Z,3348.00
2022-08-03T08:59:48.462Z,3320.00
2022-08-03T09:00:32.354Z,3304.00
2022-08-03T09:01:33.038Z,3292.00
2022-08-03T09:02:32.340Z,3296.00
2022-08-03T09:03:32.362Z,3320.00
2022-08-03T09:04:32.354Z,3348.00
2022-08-03T09:05:55.106Z,3340.00
2022-08-03T09:06:32.313Z,3344.00
2022-08-03T09:07:32.579Z,3320.00
2022-08-03T09:08:32.299Z,3344.00
2022-08-03T09:10:10.445Z,3368.00
2022-08-03T09:10:32.291Z,3420.00
2022-08-03T09:11:51.477Z,3468.00
2022-08-03T09:12:42.228Z,680.00
2022-08-03T09:13:32.230Z,3472.00
2022-08-03T09:14:35.331Z,3388.00
2022-08-03T09:15:32.221Z,3396.00
2022-08-03T09:16:32.237Z,3392.00
2022-08-03T09:17:32.200Z,3368.00
2022-08-03T09:18:32.851Z,3396.00
2022-08-03T09:19:32.176Z,3428.00
2022-08-03T09:20:32.172Z,3516.00
2022-08-03T09:21:33.548Z,1840.00
2022-08-03T09:22:32.169Z,3388.00
2022-08-03T09:23:51.571Z,2596.00
2022-08-03T09:24:41.143Z,3384.00
2022-08-03T09:25:32.135Z,3396.00
2022-08-03T09:26:32.123Z,3404.00
2022-08-03T09:27:32.113Z,3492.00
2022-08-03T09:28:56.266Z,3484.00
2022-08-03T09:29:32.171Z,2876.00
2022-08-03T09:30:34.260Z,3556.00
2022-08-03T09:31:32.088Z,3372.00
2022-08-03T09:32:32.906Z,2148.00
2022-08-03T09:33:35.888Z,772.00
2022-08-03T09:34:32.059Z,2224.00
2022-08-03T09:36:00.050Z,832.00
2022-08-03T09:36:34.473Z,748.00
2022-08-03T09:38:11.874Z,652.00
2022-08-03T09:38:32.019Z,3140.00
2022-08-03T09:39:41.250Z,3324.00
2022-08-03T09:40:31.998Z,1352.00
2022-08-03T09:41:31.985Z,3144.00
2022-08-03T09:42:31.990Z,1928.00
2022-08-03T09:43:31.962Z,784.00
2022-08-03T09:44:32.534Z,908.00
2022-08-03T09:45:31.947Z,1188.00
2022-08-03T09:46:31.939Z,3312.00
2022-08-03T09:47:31.936Z,780.00
2022-08-03T09:48:31.938Z,3296.00
2022-08-03T09:49:32.037Z,716.00
2022-08-03T09:50:32.560Z,2924.00
2022-08-03T09:52:30.288Z,1236.00
2022-08-03T09:52:50.057Z,1056.00
2022-08-03T09:53:31.879Z,3196.00
2022-08-03T09:54:31.889Z,3068.00
2022-08-03T09:56:33.373Z,2984.00
2022-08-03T09:56:36.036Z,820.00
2022-08-03T09:57:31.849Z,2884.00
2022-08-03T09:58:31.849Z,2932.00
2022-08-03T09:59:31.823Z,2880.00
2022-08-03T10:00:31.819Z,2776.00
2022-08-03T10:01:31.858Z,2748.00
2022-08-03T10:02:31.787Z,2752.00
2022-08-03T10:03:32.610Z,2764.00
2022-08-03T10:04:31.794Z,2800.00
2022-08-03T10:05:31.759Z,2820.00
2022-08-03T10:06:31.768Z,2776.00
2022-08-03T10:07:31.774Z,2724.00
2022-08-03T10:08:31.770Z,2724.00
2022-08-03T10:09:31.732Z,2744.00
2022-08-03T10:10:32.326Z,2756.00
2022-08-03T10:11:31.704Z,2268.00
2022-08-03T10:12:31.708Z,2544.00
2022-08-03T10:13:31.712Z,1988.00
2022-08-03T10:14:31.703Z,2416.00
2022-08-03T10:16:22.768Z,2616.00
2022-08-03T10:16:32.552Z,2256.00
2022-08-03T10:17:31.669Z,2112.00
2022-08-03T10:18:31.639Z,2064.00
2022-08-03T10:19:31.659Z,2532.00
2022-08-03T10:20:31.660Z,2888.00
2022-08-03T10:21:31.645Z,2760.00
2022-08-03T10:22:31.614Z,2276.00
2022-08-03T10:23:33.969Z,2300.00
2022-08-03T10:24:31.600Z,1772.00
2022-08-03T10:25:33.163Z,2512.00
2022-08-03T10:26:31.593Z,2420.00
2022-08-03T10:27:31.603Z,2348.00
2022-08-03T10:28:31.589Z,2296.00
2022-08-03T10:29:32.078Z,2276.00
2022-08-03T10:30:31.535Z,2268.00
2022-08-03T10:31:31.531Z,2244.00
2022-08-03T10:32:31.537Z,2028.00
2022-08-03T10:33:49.891Z,2240.00
2022-08-03T10:34:31.502Z,2216.00
2022-08-03T10:35:31.493Z,2184.00
2022-08-03T10:36:31.494Z,2152.00
2022-08-03T10:37:31.472Z,2124.00
2022-08-03T10:38:31.468Z,2100.00
2022-08-03T10:39:31.474Z,2080.00
2022-08-03T10:40:49.485Z,2072.00
2022-08-03T10:41:31.432Z,2060.00
2022-08-03T10:42:31.448Z,2044.00
2022-08-03T10:43:31.444Z,2024.00
2022-08-03T10:44:31.496Z,2024.00
2022-08-03T10:45:31.505Z,2024.00
2022-08-03T10:46:31.416Z,2028.00
2022-08-03T10:47:31.411Z,2004.00
2022-08-03T10:48:31.378Z,1988.00
2022-08-03T10:49:34.738Z,1980.00
2022-08-03T10:50:31.358Z,1968.00
2022-08-03T10:51:31.355Z,1952.00
2022-08-03T10:52:33.614Z,1940.00
2022-08-03T10:53:31.359Z,1928.00
2022-08-03T10:54:31.360Z,1932.00
2022-08-03T10:55:32.096Z,1936.00
2022-08-03T10:56:46.600Z,1952.00
2022-08-03T10:57:31.293Z,1976.00
2022-08-03T10:58:31.298Z,2000.00
2022-08-03T10:59:31.304Z,1996.00
2022-08-03T11:00:31.323Z,2000.00
2022-08-03T11:01:58.697Z,2072.00
2022-08-03T11:02:31.314Z,1092.00
2022-08-03T11:03:31.244Z,1740.00
2022-08-03T11:04:31.233Z,1800.00
2022-08-03T11:05:31.228Z,1772.00
2022-08-03T11:06:37.293Z,2132.00
2022-08-03T11:07:31.235Z,2188.00
2022-08-03T11:08:32.097Z,1744.00
2022-08-03T11:09:31.189Z,1736.00
2022-08-03T11:10:31.184Z,2084.00
2022-08-03T11:11:31.179Z,2272.00
2022-08-03T11:12:32.226Z,1068.00
2022-08-03T11:13:31.188Z,1276.00
2022-08-03T11:14:31.197Z,2216.00
2022-08-03T11:15:31.147Z,1364.00
2022-08-03T11:16:31.130Z,1876.00
2022-08-03T11:17:31.132Z,1832.00
2022-08-03T11:18:32.097Z,1652.00
2022-08-03T11:19:31.120Z,764.00
2022-08-03T11:20:31.128Z,856.00
2022-08-03T11:21:31.601Z,976.00
2022-08-03T11:22:31.077Z,1124.00
2022-08-03T11:24:03.535Z,900.00
2022-08-03T11:24:31.063Z,1340.00
2022-08-03T11:25:53.239Z,1472.00
2022-08-03T11:26:31.055Z,1112.00
2022-08-03T11:27:31.084Z,1168.00
2022-08-03T11:28:31.611Z,1396.00
2022-08-03T11:29:31.060Z,1248.00
2022-08-03T11:30:31.009Z,1312.00
2022-08-03T11:31:59.993Z,1076.00
2022-08-03T11:32:31.014Z,968.00
2022-08-03T11:33:31.087Z,1168.00
2022-08-03T11:34:31.617Z,748.00
2022-08-03T11:35:30.977Z,680.00
2022-08-03T11:36:32.058Z,704.00
2022-08-03T11:37:33.338Z,596.00
2022-08-03T11:38:30.959Z,616.00
2022-08-03T11:39:30.949Z,720.00
2022-08-03T11:40:30.910Z,2060.00
2022-08-03T11:41:30.969Z,952.00
2022-08-03T11:42:30.894Z,1216.00
2022-08-03T11:43:31.808Z,1960.00
2022-08-03T11:44:30.891Z,1328.00
2022-08-03T11:45:30.883Z,684.00
2022-08-03T11:46:30.875Z,696.00
2022-08-03T11:47:30.891Z,752.00
2022-08-03T11:48:30.841Z,1264.00
2022-08-03T11:49:30.860Z,1880.00
2022-08-03T11:50:30.829Z,1888.00
2022-08-03T11:51:30.841Z,1340.00
2022-08-03T11:52:30.822Z,1284.00
2022-08-03T11:53:30.799Z,760.00
2022-08-03T11:54:30.779Z,752.00
2022-08-03T11:55:30.773Z,2100.00
2022-08-03T11:56:30.766Z,856.00
2022-08-03T11:59:16.562Z,2196.00
2022-08-03T11:59:19.067Z,856.00
2022-08-03T11:59:30.732Z,1336.00
2022-08-03T12:00:30.769Z,1416.00
2022-08-03T12:01:30.715Z,2032.00
2022-08-03T12:02:30.707Z,2012.00
2022-08-03T12:03:30.822Z,1888.00
2022-08-03T12:04:30.709Z,1904.00
2022-08-03T12:05:30.688Z,816.00
2022-08-03T12:06:31.634Z,1324.00
2022-08-03T12:08:03.152Z,880.00
2022-08-03T12:08:31.182Z,864.00
2022-08-03T12:09:30.651Z,1168.00
2022-08-03T12:10:30.652Z,1076.00
2022-08-03T12:11:30.644Z,1224.00
2022-08-03T12:12:30.647Z,1192.00
2022-08-03T12:14:43.925Z,1320.00
2022-08-03T12:14:48.576Z,1168.00
2022-08-03T12:15:30.586Z,1108.00
2022-08-03T12:16:30.604Z,972.00
2022-08-03T12:17:30.599Z,1036.00
2022-08-03T12:18:31.558Z,1400.00
2022-08-03T12:19:30.564Z,1544.00
2022-08-03T12:20:31.584Z,1216.00
2022-08-03T12:21:30.526Z,1428.00
2022-08-03T12:22:30.518Z,1280.00
2022-08-03T12:23:33.760Z,1676.00
2022-08-03T12:24:30.539Z,956.00
2022-08-03T12:25:39.298Z,868.00
2022-08-03T12:26:30.496Z,764.00